createdAt,value
2015-10-29T00:00:48.423Z,20.67
2015-10-29T00:01:48.456Z,20.65
2015-10-29T00:02:48.506Z,20.55
2015-10-29T00:03:48.539Z,20.62
2015-10-29T00:04:48.575Z,20.63
2015-10-29T00:05:48.639Z,20.65
2015-10-29T00:06:48.672Z,20.60
2015-10-29T00:07:48.926Z,20.66
2015-10-29T00:08:48.756Z,20.56
2015-10-29T00:09:48.790Z,20.63
2015-10-29T00:10:48.841Z,20.58
2015-10-29T00:11:48.889Z,20.67
2015-10-29T00:12:48.924Z,20.65
2015-10-29T00:13:48.974Z,20.62
2015-10-29T00:14:49.007Z,20.62
2015-10-29T00:15:49.057Z,20.66
2015-10-29T00:16:49.091Z,20.55
2015-10-29T00:17:49.124Z,20.58
2015-10-29T00:18:50.393Z,20.59
2015-10-29T00:19:49.208Z,20.66
2015-10-29T00:20:49.258Z,20.65
2015-10-29T00:21:49.307Z,20.62
2015-10-29T00:22:49.357Z,20.65
2015-10-29T00:23:49.376Z,20.60
2015-10-29T00:24:49.424Z,20.62
2015-10-29T00:25:49.474Z,20.65
2015-10-29T00:26:49.523Z,20.66
2015-10-29T00:27:49.557Z,20.66
2015-10-29T00:28:49.607Z,20.59
2015-10-29T00:29:49.469Z,20.52
2015-10-29T00:30:49.675Z,20.60
2015-10-29T00:31:49.725Z,20.63
2015-10-29T00:32:49.759Z,20.59
2015-10-29T00:33:49.808Z,20.63
2015-10-29T00:34:49.858Z,20.62
2015-10-29T00:35:49.891Z,20.62
2015-10-29T00:36:49.926Z,20.63
2015-10-29T00:37:49.975Z,20.62
2015-10-29T00:38:50.009Z,20.66
2015-10-29T00:39:50.059Z,20.63
2015-10-29T00:40:50.093Z,20.63
2015-10-29T00:41:50.142Z,20.66
2015-10-29T00:42:50.192Z,20.63
2015-10-29T00:43:50.242Z,20.63
2015-10-29T00:44:50.275Z,20.60
2015-10-29T00:45:50.310Z,20.59
2015-10-29T00:46:50.343Z,20.62
2015-10-29T00:47:50.393Z,20.63
2015-10-29T00:48:50.443Z,20.60
2015-10-29T00:49:50.477Z,20.66
2015-10-29T00:50:50.526Z,20.63
2015-10-29T00:51:50.560Z,20.63
2015-10-29T00:52:50.610Z,20.62
2015-10-29T00:53:50.643Z,20.60
2015-10-29T00:54:50.693Z,20.63
2015-10-29T00:55:50.727Z,20.66
2015-10-29T00:56:50.776Z,20.66
2015-10-29T00:57:50.810Z,20.63
2015-10-29T00:58:50.860Z,20.62
2015-10-29T00:59:50.894Z,20.66
2015-10-29T01:00:50.928Z,20.62
2015-10-29T01:01:50.993Z,20.59
2015-10-29T01:02:51.027Z,20.56
2015-10-29T01:03:51.076Z,20.58
2015-10-29T01:04:51.111Z,20.60
2015-10-29T01:05:51.144Z,20.59
2015-10-29T01:06:51.194Z,20.56
2015-10-29T01:07:51.228Z,20.55
2015-10-29T01:08:51.278Z,20.63
2015-10-29T01:09:51.327Z,20.58
2015-10-29T01:10:51.361Z,20.58
2015-10-29T01:11:51.411Z,20.60
2015-10-29T01:12:51.444Z,20.55
2015-10-29T01:13:51.478Z,20.58
2015-10-29T01:14:51.528Z,20.60
2015-10-29T01:15:51.562Z,20.60
2015-10-29T01:16:51.611Z,20.60
2015-10-29T01:17:51.661Z,20.50
2015-10-29T01:18:51.695Z,20.50
2015-10-29T01:19:51.744Z,20.56
2015-10-29T01:20:51.794Z,20.58
2015-10-29T01:21:51.827Z,20.55
2015-10-29T01:22:51.862Z,20.56
2015-10-29T01:23:51.896Z,20.58
2015-10-29T01:24:51.945Z,20.58
2015-10-29T01:25:51.995Z,20.59
2015-10-29T01:26:52.045Z,20.56
2015-10-29T01:27:52.079Z,20.63
2015-10-29T01:28:52.113Z,20.58
2015-10-29T01:29:52.146Z,20.60
2015-10-29T01:30:52.196Z,20.59
2015-10-29T01:31:52.246Z,20.59
2015-10-29T01:32:52.279Z,20.56
2015-10-29T01:33:52.329Z,20.52
2015-10-29T01:34:52.363Z,20.56
2015-10-29T01:35:52.428Z,20.59
2015-10-29T01:36:52.447Z,20.55
2015-10-29T01:37:52.495Z,20.59
2015-10-29T01:38:52.530Z,20.55
2015-10-29T01:39:52.564Z,20.59
2015-10-29T01:40:52.613Z,20.56
2015-10-29T01:41:52.663Z,20.41
2015-10-29T01:42:52.603Z,20.44
2015-10-29T01:43:52.747Z,20.55
2015-10-29T01:44:52.874Z,20.63
2015-10-29T01:45:52.830Z,20.52
2015-10-29T01:46:52.864Z,20.63
2015-10-29T01:47:52.914Z,20.52
2015-10-29T01:48:52.947Z,20.58
2015-10-29T01:49:53.013Z,20.51
2015-10-29T01:50:53.047Z,20.59
2015-10-29T01:51:53.080Z,20.41
2015-10-29T01:53:53.180Z,20.50
2015-10-29T01:54:53.198Z,20.39
2015-10-29T01:55:53.248Z,20.43
2015-10-29T01:56:53.281Z,20.44
2015-10-29T01:57:53.331Z,20.50
2015-10-29T01:58:53.365Z,20.58
2015-10-29T01:59:53.414Z,20.48
2015-10-29T02:00:53.448Z,20.48
2015-10-29T02:01:53.498Z,20.47
2015-10-29T02:02:53.579Z,20.44
2015-10-29T02:03:53.612Z,20.48
2015-10-29T02:04:53.647Z,20.55
2015-10-29T02:06:54.434Z,20.44
2015-10-29T02:07:56.202Z,20.48
2015-10-29T02:08:54.704Z,20.47
2015-10-29T02:09:54.739Z,20.43
2015-10-29T02:10:54.773Z,20.43
2015-10-29T02:11:54.775Z,20.47
2015-10-29T02:12:54.903Z,20.41
2015-10-29T02:13:54.874Z,20.59
2015-10-29T02:14:54.986Z,20.55
2015-10-29T02:15:54.661Z,20.56
2015-10-29T02:16:54.741Z,20.44
2015-10-29T02:17:54.339Z,20.52
2015-10-29T02:18:54.341Z,20.50
2015-10-29T02:19:54.312Z,20.59
2015-10-29T02:20:54.503Z,20.43
2015-10-29T02:21:54.349Z,20.41
2015-10-29T02:22:54.383Z,20.58
2015-10-29T02:23:54.449Z,20.62
2015-10-29T02:24:54.451Z,20.56
2015-10-29T02:25:54.516Z,20.50
2015-10-29T02:26:54.550Z,20.48
2015-10-29T02:27:54.584Z,20.62
2015-10-29T02:28:54.633Z,20.59
2015-10-29T02:29:54.683Z,20.63
2015-10-29T02:30:54.702Z,20.56
2015-10-29T02:31:54.782Z,20.59
2015-10-29T02:32:54.801Z,20.66
2015-10-29T02:33:54.882Z,20.66
2015-10-29T02:34:54.915Z,20.66
2015-10-29T02:35:54.965Z,20.62
2015-10-29T02:36:54.968Z,20.66
2015-10-29T02:37:55.017Z,20.59
2015-10-29T02:38:55.051Z,20.56
2015-10-29T02:39:55.085Z,20.65
2015-10-29T02:40:55.134Z,20.59
2015-10-29T02:41:55.168Z,20.62
2015-10-29T02:42:55.203Z,20.63
2015-10-29T02:43:55.237Z,20.66
2015-10-29T02:44:56.223Z,20.62
2015-10-29T02:45:55.333Z,20.62
2015-10-29T02:46:55.382Z,20.59
2015-10-29T02:47:55.416Z,20.55
2015-10-29T02:48:55.451Z,20.59
2015-10-29T02:49:55.484Z,20.56
2015-10-29T02:50:55.518Z,20.59
2015-10-29T02:51:55.567Z,20.60
2015-10-29T02:52:55.617Z,20.56
2015-10-29T02:53:55.652Z,20.66
2015-10-29T02:54:55.700Z,20.60
2015-10-29T02:55:55.750Z,20.59
2015-10-29T02:56:55.785Z,20.55
2015-10-29T02:57:55.819Z,20.51
2015-10-29T02:58:56.072Z,20.59
2015-10-29T03:00:10.077Z,20.63
2015-10-29T03:00:55.936Z,20.58
2015-10-29T03:01:55.970Z,20.52
2015-10-29T03:02:56.019Z,20.63
2015-10-29T03:03:56.069Z,20.62
2015-10-29T03:04:56.103Z,20.63
2015-10-29T03:05:56.138Z,20.62
2015-10-29T03:06:56.187Z,20.56
2015-10-29T03:07:56.236Z,20.60
2015-10-29T03:08:56.271Z,20.51
2015-10-29T03:09:56.320Z,20.56
2015-10-29T03:10:56.355Z,20.50
2015-10-29T03:11:56.388Z,20.52
2015-10-29T03:12:56.437Z,20.52
2015-10-29T03:13:56.471Z,20.44
2015-10-29T03:14:56.521Z,20.55
2015-10-29T03:15:56.571Z,20.62
2015-10-29T03:16:56.604Z,20.37
2015-10-29T03:17:56.638Z,20.47
2015-10-29T03:18:56.672Z,20.50
2015-10-29T03:19:56.722Z,20.44
2015-10-29T03:20:56.756Z,20.44
2015-10-29T03:21:56.806Z,20.41
2015-10-29T03:22:56.839Z,20.48
2015-10-29T03:23:56.890Z,20.36
2015-10-29T03:24:56.939Z,20.43
2015-10-29T03:25:56.973Z,20.48
2015-10-29T03:26:57.006Z,20.52
2015-10-29T03:27:57.040Z,20.52
2015-10-29T03:28:57.075Z,20.43
2015-10-29T03:29:57.125Z,20.48
2015-10-29T03:30:57.174Z,20.48
2015-10-29T03:31:57.223Z,20.47
2015-10-29T03:32:57.258Z,20.56
2015-10-29T03:33:57.292Z,20.52
2015-10-29T03:34:57.326Z,20.47
2015-10-29T03:35:57.375Z,20.44
2015-10-29T03:36:57.409Z,20.47
2015-10-29T03:37:57.459Z,20.48
2015-10-29T03:38:57.508Z,20.44
2015-10-29T03:39:57.542Z,20.44
2015-10-29T03:40:57.591Z,20.48
2015-10-29T03:41:57.625Z,20.50
2015-10-29T03:42:57.661Z,20.58
2015-10-29T03:43:57.694Z,20.48
2015-10-29T03:44:57.743Z,20.51
2015-10-29T03:46:07.418Z,20.39
2015-10-29T03:46:58.232Z,20.44
2015-10-29T03:47:57.877Z,20.47
2015-10-29T03:48:57.910Z,20.55
2015-10-29T03:49:57.960Z,20.48
2015-10-29T03:50:57.994Z,20.51
2015-10-29T03:51:58.028Z,20.55
2015-10-29T03:52:58.077Z,20.50
2015-10-29T03:53:58.111Z,20.41
2015-10-29T03:54:58.161Z,20.44
2015-10-29T03:55:58.196Z,20.39
2015-10-29T03:56:58.244Z,20.40
2015-10-29T03:57:58.279Z,20.36
2015-10-29T03:58:58.329Z,20.40
2015-10-29T03:59:58.362Z,20.39
2015-10-29T04:00:58.396Z,20.39
2015-10-29T04:01:58.446Z,20.32
2015-10-29T04:02:58.479Z,20.43
2015-10-29T04:03:58.530Z,20.39
2015-10-29T04:04:58.579Z,20.39
2015-10-29T04:05:58.613Z,20.41
2015-10-29T04:06:58.647Z,20.43
2015-10-29T04:07:58.681Z,20.39
2015-10-29T04:08:58.731Z,20.43
2015-10-29T04:09:58.779Z,20.39
2015-10-29T04:10:58.814Z,20.39
2015-10-29T04:11:58.848Z,20.37
2015-10-29T04:12:58.898Z,20.32
2015-10-29T04:13:58.931Z,20.40
2015-10-29T04:14:58.981Z,20.34
2015-10-29T04:15:59.031Z,20.40
2015-10-29T04:16:59.065Z,20.32
2015-10-29T04:17:59.114Z,20.34
2015-10-29T04:18:59.148Z,20.40
2015-10-29T04:19:59.182Z,20.41
2015-10-29T04:20:59.231Z,20.37
2015-10-29T04:21:59.266Z,20.43
2015-10-29T04:22:59.314Z,20.41
2015-10-29T04:23:59.364Z,20.41
2015-10-29T04:24:59.399Z,20.40
2015-10-29T04:25:59.433Z,20.39
2015-10-29T04:26:59.482Z,20.36
2015-10-29T04:27:59.500Z,20.37
2015-10-29T04:28:59.550Z,20.37
2015-10-29T04:29:59.584Z,20.43
2015-10-29T04:30:59.633Z,20.43
2015-10-29T04:31:59.683Z,20.39
2015-10-29T04:32:59.717Z,20.32
2015-10-29T04:33:59.766Z,20.37
2015-10-29T04:34:59.801Z,20.40
2015-10-29T04:35:59.849Z,20.44
2015-10-29T04:36:59.884Z,20.48
2015-10-29T04:37:59.934Z,20.41
2015-10-29T04:38:59.967Z,20.37
2015-10-29T04:40:00.001Z,20.37
2015-10-29T04:41:00.051Z,20.41
2015-10-29T04:42:00.085Z,20.40
2015-10-29T04:43:00.134Z,20.36
2015-10-29T04:44:00.184Z,20.41
2015-10-29T04:45:00.218Z,20.37
2015-10-29T04:46:00.239Z,20.40
2015-10-29T04:47:00.259Z,20.36
2015-10-29T04:48:00.295Z,20.43
2015-10-29T04:49:00.329Z,20.40
2015-10-29T04:50:00.349Z,20.28
2015-10-29T04:51:00.377Z,20.32
2015-10-29T04:52:00.421Z,20.43
2015-10-29T04:53:00.465Z,20.36
2015-10-29T04:55:00.522Z,20.29
2015-10-29T04:56:00.570Z,20.31
2015-10-29T04:57:00.601Z,20.29
2015-10-29T04:58:00.634Z,20.28
2015-10-29T04:59:00.680Z,20.26
2015-10-29T05:00:00.728Z,20.34
2015-10-29T05:01:00.778Z,20.31
2015-10-29T05:02:00.811Z,20.22
2015-10-29T05:03:00.860Z,20.34
2015-10-29T05:04:00.878Z,20.25
2015-10-29T05:05:00.912Z,20.32
2015-10-29T05:06:00.961Z,20.31
2015-10-29T05:07:00.995Z,20.28
2015-10-29T05:08:01.060Z,20.24
2015-10-29T05:09:01.109Z,20.26
2015-10-29T05:10:01.127Z,20.21
2015-10-29T05:11:01.177Z,20.22
2015-10-29T05:12:01.210Z,20.22
2015-10-29T05:13:01.244Z,20.24
2015-10-29T05:14:01.310Z,20.18
2015-10-29T05:15:01.343Z,20.21
2015-10-29T05:16:01.378Z,20.21
2015-10-29T05:17:01.411Z,20.19
2015-10-29T05:18:01.461Z,20.21
2015-10-29T05:19:01.495Z,20.26
2015-10-29T05:20:01.545Z,20.25
2015-10-29T05:21:01.578Z,20.24
2015-10-29T05:22:01.628Z,20.21
2015-10-29T05:23:01.678Z,20.22
2015-10-29T05:24:01.697Z,20.25
2015-10-29T05:25:01.745Z,20.11
2015-10-29T05:26:01.779Z,20.13
2015-10-29T05:27:01.830Z,20.25
2015-10-29T05:28:01.878Z,20.24
2015-10-29T05:29:01.912Z,20.22
2015-10-29T05:30:01.212Z,20.19
2015-10-29T05:31:01.996Z,20.13
2015-10-29T05:32:02.030Z,20.19
2015-10-29T05:33:02.079Z,20.18
2015-10-29T05:34:02.113Z,20.14
2015-10-29T05:35:02.147Z,20.22
2015-10-29T05:36:02.197Z,20.25
2015-10-29T05:37:02.247Z,20.24
2015-10-29T05:38:02.280Z,20.25
2015-10-29T05:39:02.329Z,20.19
2015-10-29T05:40:02.364Z,20.22
2015-10-29T05:41:02.398Z,20.21
2015-10-29T05:42:02.447Z,20.14
2015-10-29T05:43:02.481Z,20.19
2015-10-29T05:44:02.531Z,20.16
2015-10-29T05:45:02.565Z,20.07
2015-10-29T05:46:02.614Z,20.16
2015-10-29T05:47:02.648Z,20.18
2015-10-29T05:48:02.682Z,20.13
2015-10-29T05:49:02.731Z,20.11
2015-10-29T05:50:02.766Z,20.09
2015-10-29T05:51:02.814Z,20.14
2015-10-29T05:52:02.864Z,20.10
2015-10-29T05:53:02.899Z,20.10
2015-10-29T05:54:02.932Z,20.07
2015-10-29T05:55:02.983Z,20.18
2015-10-29T05:56:03.016Z,20.18
2015-10-29T05:57:03.050Z,20.09
2015-10-29T05:58:03.084Z,20.24
2015-10-29T05:59:03.133Z,20.19
2015-10-29T06:00:03.183Z,20.22
2015-10-29T06:01:03.233Z,20.18
2015-10-29T06:02:03.266Z,20.18
2015-10-29T06:03:03.316Z,20.22
2015-10-29T06:04:03.349Z,20.21
2015-10-29T06:05:03.384Z,20.13
2015-10-29T06:06:03.418Z,20.09
2015-10-29T06:07:03.468Z,20.11
2015-10-29T06:08:03.517Z,20.11
2015-10-29T06:09:03.551Z,20.11
2015-10-29T06:10:02.851Z,20.16
2015-10-29T06:11:03.635Z,20.14
2015-10-29T06:12:03.668Z,20.22
2015-10-29T06:13:03.703Z,20.18
2015-10-29T06:14:03.752Z,20.22
2015-10-29T06:15:03.786Z,20.24
2015-10-29T06:16:03.836Z,20.18
2015-10-29T06:17:03.916Z,20.22
2015-10-29T06:18:03.934Z,20.21
2015-10-29T06:19:03.937Z,20.21
2015-10-29T06:20:04.003Z,20.18
2015-10-29T06:21:04.036Z,20.25
2015-10-29T06:22:04.070Z,20.19
2015-10-29T06:23:04.120Z,20.14
2015-10-29T06:24:04.388Z,20.11
2015-10-29T06:25:04.188Z,20.03
2015-10-29T06:26:04.222Z,20.00
2015-10-29T06:27:04.256Z,20.10
2015-10-29T06:28:04.305Z,20.25
2015-10-29T06:29:13.558Z,20.19
2015-10-29T06:30:04.388Z,20.22
2015-10-29T06:31:04.439Z,20.16
2015-10-29T06:32:04.472Z,20.16
2015-10-29T06:33:04.507Z,20.09
2015-10-29T06:34:04.541Z,20.13
2015-10-29T06:35:04.590Z,20.18
2015-10-29T06:36:04.625Z,20.10
2015-10-29T06:37:04.658Z,20.06
2015-10-29T06:38:04.707Z,20.06
2015-10-29T06:39:04.866Z,20.14
2015-10-29T06:40:04.773Z,20.24
2015-10-29T06:41:04.807Z,20.03
2015-10-29T06:42:04.841Z,20.07
2015-10-29T06:43:04.952Z,20.07
2015-10-29T06:44:04.940Z,20.02
2015-10-29T06:45:04.974Z,20.02
2015-10-29T06:46:05.007Z,19.92
2015-10-29T06:47:05.057Z,20.02
2015-10-29T06:48:05.091Z,19.99
2015-10-29T06:49:05.140Z,20.04
2015-10-29T06:50:05.176Z,20.07
2015-10-29T06:51:05.209Z,19.95
2015-10-29T06:52:05.242Z,19.94
2015-10-29T06:53:05.276Z,19.94
2015-10-29T06:54:04.576Z,20.00
2015-10-29T06:55:05.376Z,19.94
2015-10-29T06:56:05.410Z,20.03
2015-10-29T06:57:05.444Z,19.94
2015-10-29T06:58:05.494Z,19.91
2015-10-29T06:59:05.527Z,20.02
2015-10-29T07:00:05.562Z,19.92
2015-10-29T07:01:05.611Z,19.92
2015-10-29T07:02:05.645Z,19.96
2015-10-29T07:03:05.695Z,19.95
2015-10-29T07:04:05.728Z,19.89
2015-10-29T07:05:05.778Z,19.94
2015-10-29T07:06:05.812Z,19.91
2015-10-29T07:07:05.861Z,19.89
2015-10-29T07:08:05.896Z,19.91
2015-10-29T07:09:05.930Z,19.99
2015-10-29T07:10:05.963Z,20.02
2015-10-29T07:11:06.013Z,19.94
2015-10-29T07:12:06.063Z,19.99
2015-10-29T07:13:06.097Z,19.88
2015-10-29T07:14:06.147Z,19.91
2015-10-29T07:15:06.180Z,19.92
2015-10-29T07:16:06.214Z,19.94
2015-10-29T07:17:06.264Z,19.96
2015-10-29T07:18:06.298Z,19.89
2015-10-29T07:19:06.332Z,19.88
2015-10-29T07:20:06.382Z,19.89
2015-10-29T07:21:06.431Z,19.92
2015-10-29T07:22:06.465Z,19.92
2015-10-29T07:23:06.499Z,19.89
2015-10-29T07:24:06.549Z,19.94
2015-10-29T07:25:06.582Z,19.92
2015-10-29T07:26:06.632Z,19.88
2015-10-29T07:27:06.682Z,19.88
2015-10-29T07:28:06.699Z,19.92
2015-10-29T07:29:06.750Z,19.91
2015-10-29T07:30:06.784Z,19.88
2015-10-29T07:31:06.833Z,19.96
2015-10-29T07:32:06.882Z,19.88
2015-10-29T07:33:06.918Z,19.81
2015-10-29T07:34:06.951Z,19.91
2015-10-29T07:35:07.001Z,19.79
2015-10-29T07:36:07.018Z,19.92
2015-10-29T07:37:07.068Z,19.91
2015-10-29T07:38:07.101Z,19.79
2015-10-29T07:39:07.168Z,19.91
2015-10-29T07:40:07.201Z,19.88
2015-10-29T07:41:07.235Z,19.88
2015-10-29T07:42:07.270Z,19.85
2015-10-29T07:43:07.320Z,19.82
2015-10-29T07:44:07.354Z,19.81
2015-10-29T07:45:07.387Z,19.85
2015-10-29T07:46:07.437Z,19.89
2015-10-29T07:47:07.470Z,19.85
2015-10-29T07:48:07.520Z,19.85
2015-10-29T07:49:07.569Z,19.85
2015-10-29T07:50:07.603Z,19.82
2015-10-29T07:51:07.637Z,19.82
2015-10-29T07:52:07.672Z,19.85
2015-10-29T07:53:07.737Z,19.81
2015-10-29T07:54:07.755Z,19.85
2015-10-29T07:55:07.805Z,19.79
2015-10-29T07:56:07.839Z,19.77
2015-10-29T07:57:07.872Z,19.88
2015-10-29T07:58:07.939Z,19.79
2015-10-29T07:59:07.956Z,19.88
2015-10-29T08:00:08.005Z,19.84
2015-10-29T08:01:08.039Z,19.81
2015-10-29T08:02:08.089Z,19.82
2015-10-29T08:03:08.124Z,19.81
2015-10-29T08:04:08.157Z,19.81
2015-10-29T08:05:08.222Z,19.86
2015-10-29T08:06:08.085Z,19.77
2015-10-29T08:07:07.525Z,19.81
2015-10-29T08:08:08.324Z,19.86
2015-10-29T08:09:08.374Z,19.85
2015-10-29T08:10:08.408Z,19.86
2015-10-29T08:11:08.458Z,19.76
2015-10-29T08:12:08.476Z,19.81
2015-10-29T08:13:08.525Z,19.86
2015-10-29T08:14:08.574Z,19.76
2015-10-29T08:15:08.609Z,19.77
2015-10-29T08:16:08.659Z,19.81
2015-10-29T08:17:08.692Z,19.79
2015-10-29T08:18:08.726Z,19.86
2015-10-29T08:19:08.776Z,19.76
2015-10-29T08:20:08.809Z,19.81
2015-10-29T08:21:08.844Z,19.82
2015-10-29T08:22:08.878Z,19.77
2015-10-29T08:23:08.929Z,19.81
2015-10-29T08:24:08.977Z,19.86
2015-10-29T08:25:09.026Z,19.85
2015-10-29T08:26:09.045Z,19.73
2015-10-29T08:27:09.095Z,19.82
2015-10-29T08:28:09.145Z,19.81
2015-10-29T08:29:09.179Z,19.79
2015-10-29T08:30:09.229Z,19.81
2015-10-29T08:31:09.262Z,19.73
2015-10-29T08:32:09.295Z,19.79
2015-10-29T08:33:09.331Z,19.88
2015-10-29T08:34:09.379Z,19.76
2015-10-29T08:35:09.413Z,19.82
2015-10-29T08:36:09.463Z,19.81
2015-10-29T08:37:09.497Z,19.70
2015-10-29T08:38:09.390Z,19.77
2015-10-29T08:39:09.597Z,19.86
2015-10-29T08:40:09.615Z,19.86
2015-10-29T08:41:09.648Z,19.84
2015-10-29T08:42:09.697Z,19.82
2015-10-29T08:43:09.733Z,19.85
2015-10-29T08:44:09.781Z,19.71
2015-10-29T08:45:09.830Z,19.81
2015-10-29T08:46:09.865Z,19.79
2015-10-29T08:47:09.899Z,19.70
2015-10-29T08:48:09.980Z,19.86
2015-10-29T08:49:09.967Z,19.81
2015-10-29T08:50:10.017Z,19.81
2015-10-29T08:51:10.050Z,19.71
2015-10-29T08:52:10.099Z,19.67
2015-10-29T08:53:10.150Z,19.71
2015-10-29T08:54:10.183Z,19.81
2015-10-29T08:55:10.217Z,19.73
2015-10-29T08:56:10.251Z,19.76
2015-10-29T08:57:10.301Z,19.76
2015-10-29T08:58:10.351Z,19.73
2015-10-29T08:59:10.385Z,19.76
2015-10-29T09:00:10.418Z,19.71
2015-10-29T09:01:10.484Z,19.73
2015-10-29T09:02:10.501Z,19.67
2015-10-29T09:03:10.536Z,19.70
2015-10-29T09:04:10.584Z,19.67
2015-10-29T09:05:10.619Z,19.67
2015-10-29T09:06:10.669Z,19.73
2015-10-29T09:07:10.703Z,19.69
2015-10-29T09:08:10.737Z,19.69
2015-10-29T09:09:10.770Z,19.74
2015-10-29T09:10:10.820Z,19.81
2015-10-29T09:11:10.854Z,19.74
2015-10-29T09:12:10.919Z,19.71
2015-10-29T09:13:10.938Z,19.69
2015-10-29T09:14:10.986Z,19.70
2015-10-29T09:15:11.021Z,19.76
2015-10-29T09:16:11.055Z,19.71
2015-10-29T09:17:11.104Z,19.69
2015-10-29T09:18:11.138Z,19.73
2015-10-29T09:19:11.172Z,19.71
2015-10-29T09:20:11.222Z,19.74
2015-10-29T09:21:11.272Z,19.67
2015-10-29T09:22:11.305Z,19.70
2015-10-29T09:23:11.355Z,19.73
2015-10-29T09:24:11.373Z,19.77
2015-10-29T09:25:11.423Z,19.69
2015-10-29T09:26:11.457Z,19.74
2015-10-29T09:27:11.507Z,19.73
2015-10-29T09:28:11.540Z,19.70
2015-10-29T09:29:11.590Z,19.67
2015-10-29T09:30:11.624Z,19.63
2015-10-29T09:31:11.658Z,19.69
2015-10-29T09:32:11.707Z,19.74
2015-10-29T09:33:11.742Z,19.66
2015-10-29T09:34:11.790Z,19.74
2015-10-29T09:35:11.825Z,19.71
2015-10-29T09:36:11.859Z,19.74
2015-10-29T09:37:11.908Z,19.69
2015-10-29T09:38:11.943Z,19.69
2015-10-29T09:39:11.992Z,19.69
2015-10-29T09:40:12.042Z,19.69
2015-10-29T09:41:12.076Z,19.69
2015-10-29T09:42:12.109Z,19.70
2015-10-29T09:43:12.144Z,19.70
2015-10-29T09:44:12.177Z,19.70
2015-10-29T09:45:12.211Z,19.69
2015-10-29T09:46:12.261Z,19.71
2015-10-29T09:47:12.295Z,19.69
2015-10-29T09:48:12.344Z,19.76
2015-10-29T09:49:12.394Z,19.70
2015-10-29T09:50:12.428Z,19.74
2015-10-29T09:51:12.462Z,19.69
2015-10-29T09:52:12.510Z,19.70
2015-10-29T09:53:12.545Z,19.69
2015-10-29T09:54:12.579Z,19.74
2015-10-29T09:55:12.629Z,19.67
2015-10-29T09:56:12.678Z,19.73
2015-10-29T09:57:12.713Z,19.70
2015-10-29T09:58:12.747Z,19.71
2015-10-29T09:59:12.797Z,19.69
2015-10-29T10:00:12.831Z,19.69
2015-10-29T10:01:12.864Z,19.67
2015-10-29T10:02:12.898Z,19.67
2015-10-29T10:03:12.948Z,19.73
2015-10-29T10:04:12.997Z,19.69
2015-10-29T10:05:13.032Z,19.73
2015-10-29T10:06:13.065Z,19.76
2015-10-29T10:07:13.115Z,19.63
2015-10-29T10:08:13.149Z,19.70
2015-10-29T10:09:13.183Z,19.70
2015-10-29T10:10:13.232Z,19.66
2015-10-29T10:11:13.266Z,19.71
2015-10-29T10:12:13.315Z,19.74
2015-10-29T10:13:13.350Z,19.71
2015-10-29T10:14:13.399Z,19.73
2015-10-29T10:15:13.434Z,19.67
2015-10-29T10:16:13.468Z,19.69
2015-10-29T10:17:13.501Z,19.56
2015-10-29T10:18:13.535Z,19.71
2015-10-29T10:19:13.585Z,19.73
2015-10-29T10:20:13.650Z,19.71
2015-10-29T10:21:13.668Z,19.67
2015-10-29T10:22:13.702Z,19.77
2015-10-29T10:23:13.752Z,19.66
2015-10-29T10:24:13.786Z,19.79
2015-10-29T10:25:13.820Z,19.74
2015-10-29T10:26:13.854Z,19.69
2015-10-29T10:27:13.903Z,19.74
2015-10-29T10:28:13.953Z,19.67
2015-10-29T10:29:13.986Z,19.62
2015-10-29T10:30:14.022Z,19.69
2015-10-29T10:31:14.070Z,19.71
2015-10-29T10:32:14.104Z,19.74
2015-10-29T10:33:14.138Z,19.74
2015-10-29T10:34:14.188Z,19.74
2015-10-29T10:35:14.221Z,19.70
2015-10-29T10:36:14.287Z,19.69
2015-10-29T10:37:14.305Z,19.67
2015-10-29T10:38:14.339Z,19.66
2015-10-29T10:39:14.373Z,19.69
2015-10-29T10:40:14.423Z,19.63
2015-10-29T10:41:14.471Z,19.66
2015-10-29T10:42:14.521Z,19.69
2015-10-29T10:43:14.556Z,19.69
2015-10-29T10:44:14.574Z,19.70
2015-10-29T10:45:14.623Z,19.69
2015-10-29T10:46:14.657Z,19.70
2015-10-29T10:47:14.707Z,19.67
2015-10-29T10:48:14.741Z,19.66
2015-10-29T10:49:14.790Z,19.67
2015-10-29T10:50:14.825Z,19.66
2015-10-29T10:51:14.873Z,19.67
2015-10-29T10:52:14.908Z,19.73
2015-10-29T10:53:14.942Z,19.69
2015-10-29T10:54:14.992Z,19.58
2015-10-29T10:55:15.026Z,19.62
2015-10-29T10:56:15.075Z,19.67
2015-10-29T10:57:15.109Z,19.70
2015-10-29T10:58:15.143Z,19.77
2015-10-29T10:59:15.192Z,19.71
2015-10-29T11:00:15.227Z,19.70
2015-10-29T11:01:15.260Z,19.67
2015-10-29T11:02:14.560Z,19.76
2015-10-29T11:03:15.333Z,19.84
2015-10-29T11:04:15.382Z,19.77
2015-10-29T11:05:15.432Z,19.79
2015-10-29T11:06:15.451Z,19.86
2015-10-29T11:07:15.485Z,19.88
2015-10-29T11:08:29.722Z,19.79
2015-10-29T11:09:15.584Z,19.84
2015-10-29T11:10:15.618Z,19.84
2015-10-29T11:11:15.651Z,19.79
2015-10-29T11:12:15.545Z,19.89
2015-10-29T11:13:15.720Z,19.85
2015-10-29T11:14:15.753Z,19.79
2015-10-29T11:15:15.865Z,19.84
2015-10-29T11:16:15.837Z,19.88
2015-10-29T11:17:15.887Z,19.82
2015-10-29T11:18:15.920Z,19.84
2015-10-29T11:19:15.970Z,19.81
2015-10-29T11:20:15.989Z,19.77
2015-10-29T11:21:16.022Z,19.84
2015-10-29T11:22:16.056Z,19.76
2015-10-29T11:23:16.106Z,19.84
2015-10-29T11:24:16.139Z,19.82
2015-10-29T11:25:16.173Z,19.81
2015-10-29T11:26:16.222Z,19.79
2015-10-29T11:27:16.257Z,19.74
2015-10-29T11:28:16.619Z,19.70
2015-10-29T11:29:16.325Z,19.69
2015-10-29T11:30:16.359Z,19.70
2015-10-29T11:31:15.674Z,19.71
2015-10-29T11:32:16.442Z,19.71
2015-10-29T11:33:16.491Z,19.69
2015-10-29T11:34:16.558Z,19.63
2015-10-29T11:35:16.591Z,19.71
2015-10-29T11:36:16.844Z,19.66
2015-10-29T11:37:16.643Z,19.69
2015-10-29T11:38:19.755Z,19.67
2015-10-29T11:39:17.758Z,19.71
2015-10-29T11:41:16.607Z,19.64
2015-10-29T11:42:16.641Z,19.66
2015-10-29T11:43:20.237Z,19.74
2015-10-29T11:44:16.959Z,19.59
2015-10-29T11:45:17.009Z,19.69
2015-10-29T11:46:17.043Z,19.66
2015-10-29T11:47:17.077Z,19.71
2015-10-29T11:48:17.282Z,19.62
2015-10-29T11:49:17.160Z,19.74
2015-10-29T11:50:17.272Z,19.67
2015-10-29T11:51:17.354Z,19.66
2015-10-29T11:52:17.403Z,19.67
2015-10-29T11:53:17.374Z,19.74
2015-10-29T11:54:17.534Z,19.67
2015-10-29T11:55:17.676Z,19.74
2015-10-29T11:56:18.164Z,19.66
2015-10-29T11:57:17.465Z,19.69
2015-10-29T11:58:16.796Z,19.76
2015-10-29T11:59:17.408Z,19.64
2015-10-29T12:00:17.645Z,19.69
2015-10-29T12:01:17.289Z,19.67
2015-10-29T12:02:18.042Z,19.62
2015-10-29T12:03:17.717Z,19.70
2015-10-29T12:04:17.734Z,19.70
2015-10-29T12:05:17.769Z,19.59
2015-10-29T12:06:17.819Z,19.66
2015-10-29T12:07:17.867Z,19.71
2015-10-29T12:08:17.886Z,19.63
2015-10-29T12:09:17.952Z,19.74
2015-10-29T12:10:17.986Z,19.69
2015-10-29T12:11:18.019Z,19.64
2015-10-29T12:12:18.053Z,19.69
2015-10-29T12:13:18.103Z,19.66
2015-10-29T12:14:18.153Z,19.71
2015-10-29T12:15:18.186Z,19.67
2015-10-29T12:16:18.236Z,19.85
2015-10-29T12:17:18.255Z,19.86
2015-10-29T12:18:18.304Z,19.84
2015-10-29T12:19:18.338Z,19.84
2015-10-29T12:20:18.372Z,19.86
2015-10-29T12:21:18.422Z,19.81
2015-10-29T12:22:18.455Z,19.81
2015-10-29T12:23:18.505Z,19.76
2015-10-29T12:24:17.789Z,19.67
2015-10-29T12:25:18.574Z,19.67
2015-10-29T12:26:18.624Z,19.71
2015-10-29T12:27:18.657Z,19.70
2015-10-29T12:28:18.690Z,19.69
2015-10-29T12:29:18.740Z,19.64
2015-10-29T12:30:18.790Z,19.69
2015-10-29T12:31:18.823Z,19.70
2015-10-29T12:32:18.873Z,19.70
2015-10-29T12:33:18.907Z,19.69
2015-10-29T12:34:18.941Z,19.71
2015-10-29T12:35:18.990Z,19.67
2015-10-29T12:36:19.025Z,19.73
2015-10-29T12:37:19.074Z,19.69
2015-10-29T12:38:19.109Z,19.67
2015-10-29T12:39:19.159Z,19.70
2015-10-29T12:40:19.192Z,19.69
2015-10-29T12:41:19.226Z,19.70
2015-10-29T12:42:19.276Z,19.70
2015-10-29T12:43:19.309Z,19.73
2015-10-29T12:44:19.359Z,19.69
2015-10-29T12:45:19.393Z,19.69
2015-10-29T12:46:19.473Z,19.69
2015-10-29T12:47:19.476Z,19.71
2015-10-29T12:48:19.511Z,19.70
2015-10-29T12:49:19.560Z,19.71
2015-10-29T12:50:19.609Z,19.74
2015-10-29T12:51:19.644Z,19.79
2015-10-29T12:52:19.694Z,19.82
2015-10-29T12:53:19.711Z,19.81
2015-10-29T12:54:19.761Z,19.77
2015-10-29T12:55:19.795Z,19.82
2015-10-29T12:56:20.033Z,19.81
2015-10-29T12:57:20.864Z,19.86